createdAt,value
2023-03-20T00:01:18.153Z,78.88
2023-03-20T00:03:46.199Z,78.38
2023-03-20T00:06:17.751Z,78.44
2023-03-20T00:08:46.433Z,77.76
2023-03-20T00:11:23.035Z,77.75
2023-03-20T00:13:50.905Z,77.21
2023-03-20T00:16:18.702Z,77.71
2023-03-20T00:18:46.848Z,77.71
2023-03-20T00:21:18.384Z,78.31
2023-03-20T00:23:46.387Z,77.89
2023-03-20T00:26:15.505Z,77.26
2023-03-20T00:28:44.474Z,77.72
2023-03-20T00:31:16.054Z,76.98
2023-03-20T00:33:44.138Z,77.14
2023-03-20T00:36:12.010Z,77.79
2023-03-20T00:38:41.420Z,77.72
2023-03-20T00:41:20.554Z,77.59
2023-03-20T00:43:50.192Z,76.92
2023-03-20T00:46:19.368Z,75.17
2023-03-20T00:48:47.844Z,74.73
2023-03-20T00:51:17.934Z,74.33
2023-03-20T00:53:45.729Z,72.96
2023-03-20T00:56:28.923Z,72.65
2023-03-20T00:58:56.767Z,72.23
2023-03-20T01:01:24.948Z,71.50
2023-03-20T01:03:53.162Z,72.16
2023-03-20T01:06:20.809Z,73.03
2023-03-20T01:08:49.026Z,72.76
2023-03-20T01:11:22.207Z,72.39
2023-03-20T01:13:51.196Z,71.76
2023-03-20T01:16:23.358Z,71.19
2023-03-20T01:18:51.499Z,71.37
2023-03-20T01:21:20.346Z,71.52
2023-03-20T01:23:48.896Z,71.91
2023-03-20T01:26:22.941Z,71.04
2023-03-20T01:28:51.047Z,70.55
2023-03-20T01:31:20.059Z,70.48
2023-03-20T01:33:47.725Z,70.95
2023-03-20T01:36:18.226Z,70.29
2023-03-20T01:38:46.042Z,70.05
2023-03-20T01:41:17.214Z,69.06
2023-03-20T01:43:46.297Z,68.47
2023-03-20T01:46:20.193Z,69.13
2023-03-20T01:48:50.262Z,68.50
2023-03-20T01:51:21.539Z,68.47
2023-03-20T01:53:53.208Z,69.15
2023-03-20T01:56:21.107Z,69.88
2023-03-20T01:59:01.048Z,70.01
2023-03-20T02:01:30.411Z,70.35
2023-03-20T02:03:58.159Z,69.81
2023-03-20T02:06:42.026Z,69.49
2023-03-20T02:09:16.916Z,69.64
2023-03-20T02:11:46.886Z,69.49
2023-03-20T02:14:16.439Z,69.35
2023-03-20T02:16:53.680Z,69.02
2023-03-20T02:19:44.671Z,68.42
2023-03-20T02:22:24.487Z,68.69
2023-03-20T02:25:07.386Z,68.64
2023-03-20T02:27:39.795Z,68.36
2023-03-20T02:30:37.150Z,68.44
2023-03-20T02:33:05.058Z,69.12
2023-03-20T02:35:51.554Z,69.41
2023-03-20T02:38:25.516Z,69.55
2023-03-20T02:41:05.926Z,69.93
2023-03-20T02:43:36.674Z,70.48
2023-03-20T02:46:04.405Z,70.83
2023-03-20T02:48:40.087Z,70.80
2023-03-20T02:51:28.072Z,70.11
2023-03-20T02:54:03.786Z,70.31
2023-03-20T02:56:37.862Z,70.28
2023-03-20T02:59:18.669Z,70.55
2023-03-20T03:01:55.866Z,71.64
2023-03-20T03:04:26.415Z,72.26
2023-03-20T03:06:56.164Z,72.51
2023-03-20T03:09:26.283Z,72.22
2023-03-20T03:12:01.332Z,72.95
2023-03-20T03:14:30.467Z,72.59
2023-03-20T03:16:59.610Z,73.79
2023-03-20T03:19:29.671Z,74.13
2023-03-20T03:21:57.400Z,74.19
2023-03-20T03:24:39.249Z,74.29
2023-03-20T03:27:26.090Z,73.71
2023-03-20T03:29:58.957Z,73.19
2023-03-20T03:32:30.887Z,73.11
2023-03-20T03:34:59.153Z,73.65
2023-03-20T03:37:37.217Z,74.04
2023-03-20T03:40:17.896Z,73.03
2023-03-20T03:43:05.727Z,72.87
2023-03-20T03:45:44.316Z,72.70
2023-03-20T03:48:15.687Z,73.80
2023-03-20T03:50:48.886Z,73.63
2023-03-20T03:53:38.606Z,73.37
2023-03-20T03:56:11.281Z,72.85
2023-03-20T03:58:43.596Z,73.17
2023-03-20T04:01:12.807Z,73.54
2023-03-20T04:03:46.667Z,74.12
2023-03-20T04:06:16.421Z,73.37
2023-03-20T04:08:44.141Z,72.94
2023-03-20T04:11:16.661Z,72.23
2023-03-20T04:13:46.111Z,71.82
2023-03-20T04:16:15.484Z,71.22
2023-03-20T04:18:45.406Z,71.46
2023-03-20T04:21:16.424Z,70.74
2023-03-20T04:23:45.304Z,71.72
2023-03-20T04:26:13.475Z,71.15
2023-03-20T04:28:41.262Z,70.65
2023-03-20T04:31:33.274Z,70.84
2023-03-20T04:34:19.771Z,71.65
2023-03-20T04:37:20.032Z,71.31
2023-03-20T04:39:55.523Z,70.23
2023-03-20T04:42:23.332Z,69.99
2023-03-20T04:44:55.721Z,69.99
2023-03-20T04:47:23.962Z,69.93
2023-03-20T04:49:51.785Z,70.55
2023-03-20T04:52:21.792Z,70.70
2023-03-20T04:54:49.406Z,71.40
2023-03-20T04:57:17.281Z,71.57
2023-03-20T04:59:45.165Z,72.22
2023-03-20T05:02:18.114Z,71.77
2023-03-20T05:04:45.991Z,71.29
2023-03-20T05:07:13.664Z,71.98
2023-03-20T05:10:13.403Z,72.01
2023-03-20T05:12:49.410Z,71.41
2023-03-20T05:15:28.789Z,71.13
2023-03-20T05:18:02.318Z,71.76
2023-03-20T05:20:39.508Z,72.34
2023-03-20T05:23:22.169Z,72.42
2023-03-20T05:26:03.998Z,73.24
2023-03-20T05:28:57.779Z,73.20
2023-03-20T05:31:41.586Z,73.72
2023-03-20T05:34:31.323Z,73.55
2023-03-20T05:37:28.027Z,74.40
2023-03-20T05:39:58.486Z,73.78
2023-03-20T05:42:26.476Z,72.95
2023-03-20T05:45:17.846Z,73.93
2023-03-20T05:48:05.994Z,74.66
2023-03-20T05:50:53.946Z,74.46
2023-03-20T05:53:40.209Z,75.41
2023-03-20T05:56:26.315Z,75.78
2023-03-20T05:59:20.590Z,74.68
2023-03-20T06:02:05.710Z,74.39
2023-03-20T06:04:37.459Z,74.01
2023-03-20T06:07:24.488Z,73.53
2023-03-20T06:10:01.290Z,74.83
2023-03-20T06:12:30.670Z,74.88
2023-03-20T06:14:58.978Z,73.47
2023-03-20T06:17:27.229Z,73.48
2023-03-20T06:20:01.871Z,73.54
2023-03-20T06:22:31.043Z,73.23
2023-03-20T06:24:58.894Z,73.27
2023-03-20T06:27:33.788Z,73.14
2023-03-20T06:30:01.851Z,72.77
2023-03-20T06:32:33.567Z,72.52
2023-03-20T06:35:06.002Z,70.68
2023-03-20T06:37:34.260Z,70.12
2023-03-20T06:40:10.786Z,69.88
2023-03-20T06:42:38.876Z,69.78
2023-03-20T06:45:08.458Z,69.46
2023-03-20T06:47:51.282Z,68.52
2023-03-20T06:50:19.039Z,67.56
2023-03-20T06:52:47.692Z,67.39
2023-03-20T06:55:33.729Z,66.45
2023-03-20T06:58:01.513Z,65.70
2023-03-20T07:00:30.599Z,66.04
2023-03-20T07:03:00.376Z,65.96
2023-03-20T07:05:29.346Z,65.62
2023-03-20T07:07:59.167Z,65.66
2023-03-20T07:10:28.534Z,65.16
2023-03-20T07:12:56.969Z,64.86
2023-03-20T07:15:25.498Z,65.26
2023-03-20T07:17:54.171Z,64.90
2023-03-20T07:20:21.948Z,65.90
2023-03-20T07:22:50.397Z,65.52
2023-03-20T07:25:41.510Z,65.43
2023-03-20T07:28:10.091Z,66.26
2023-03-20T07:30:41.709Z,66.78
2023-03-20T07:33:09.787Z,66.44
2023-03-20T07:35:39.777Z,66.54
2023-03-20T07:38:08.260Z,66.52
2023-03-20T07:40:44.439Z,65.67
2023-03-20T07:43:17.051Z,64.75
2023-03-20T07:45:50.587Z,65.18
2023-03-20T07:48:20.485Z,65.53
2023-03-20T07:50:48.035Z,65.44
2023-03-20T07:53:15.665Z,65.32
2023-03-20T07:55:44.194Z,64.72
2023-03-20T07:58:12.044Z,64.62
2023-03-20T08:00:39.974Z,62.93
2023-03-20T08:03:07.872Z,63.24
2023-03-20T08:05:35.938Z,62.59
2023-03-20T08:08:04.052Z,62.37
2023-03-20T08:10:31.916Z,61.93
2023-03-20T08:12:59.476Z,62.88
2023-03-20T08:15:27.075Z,61.67
2023-03-20T08:17:54.699Z,61.19
2023-03-20T08:20:22.498Z,61.30
2023-03-20T08:22:50.592Z,61.48
2023-03-20T08:25:18.308Z,61.02
2023-03-20T08:27:45.869Z,60.31
2023-03-20T08:30:14.210Z,59.30
2023-03-20T08:32:41.862Z,58.91
2023-03-20T08:35:22.076Z,58.02
2023-03-20T08:37:57.297Z,57.60
2023-03-20T08:40:25.033Z,56.63
2023-03-20T08:42:52.846Z,56.78
2023-03-20T08:45:20.677Z,55.87
2023-03-20T08:47:49.105Z,56.64
2023-03-20T08:50:16.870Z,55.92
2023-03-20T08:52:44.617Z,54.92
2023-03-20T08:55:12.866Z,54.05
2023-03-20T08:57:41.056Z,53.04
2023-03-20T09:00:10.089Z,52.88
2023-03-20T09:02:38.032Z,53.35
2023-03-20T09:05:06.305Z,52.97
2023-03-20T09:07:33.976Z,51.61
2023-03-20T09:10:01.688Z,51.49
2023-03-20T09:12:29.355Z,52.48
2023-03-20T09:14:56.935Z,51.88
2023-03-20T09:17:24.525Z,52.26
2023-03-20T09:19:52.160Z,52.50
2023-03-20T09:22:20.263Z,50.73
2023-03-20T09:24:47.907Z,49.60
2023-03-20T09:27:15.717Z,50.08
2023-03-20T09:29:43.818Z,49.23
2023-03-20T09:32:15.448Z,48.70
2023-03-20T09:34:43.099Z,48.75
2023-03-20T09:37:10.662Z,47.92
2023-03-20T09:39:38.187Z,47.89
2023-03-20T09:42:28.746Z,48.24
2023-03-20T09:45:15.829Z,47.25
2023-03-20T09:48:02.791Z,48.76
2023-03-20T09:50:45.776Z,47.56
2023-03-20T09:53:31.398Z,46.09
2023-03-20T09:55:59.955Z,45.50
2023-03-20T09:58:33.855Z,45.05
2023-03-20T10:01:03.205Z,45.51
2023-03-20T10:03:42.178Z,45.89
2023-03-20T10:06:13.125Z,45.25
2023-03-20T10:08:41.153Z,45.15
2023-03-20T10:11:08.735Z,44.04
2023-03-20T10:13:45.169Z,44.53
2023-03-20T10:16:12.748Z,42.55
2023-03-20T10:18:44.111Z,41.68
2023-03-20T10:21:18.899Z,41.32
2023-03-20T10:23:55.756Z,40.86
2023-03-20T10:26:24.089Z,39.79
2023-03-20T10:28:59.126Z,40.34
2023-03-20T10:31:26.659Z,40.17
2023-03-20T10:34:12.732Z,40.06
2023-03-20T10:36:52.115Z,40.25
2023-03-20T10:39:19.742Z,39.43
2023-03-20T10:41:55.093Z,38.89
2023-03-20T10:44:30.135Z,39.02
2023-03-20T10:46:59.769Z,39.12
2023-03-20T10:49:34.864Z,37.64
2023-03-20T10:52:08.595Z,36.34
2023-03-20T10:54:41.346Z,37.28
2023-03-20T10:57:22.266Z,39.29
2023-03-20T10:59:55.084Z,38.36
2023-03-20T11:02:23.969Z,38.75
2023-03-20T11:04:51.683Z,38.92
2023-03-20T11:07:32.450Z,38.89
2023-03-20T11:10:10.625Z,38.91
2023-03-20T11:12:39.954Z,38.02
2023-03-20T11:15:24.739Z,37.14
2023-03-20T11:17:59.870Z,37.24
2023-03-20T11:20:33.371Z,36.25
2023-03-20T11:23:08.674Z,35.23
2023-03-20T11:25:47.119Z,36.35
2023-03-20T11:28:35.198Z,36.10
2023-03-20T11:31:12.106Z,35.00
2023-03-20T11:34:05.965Z,35.39
2023-03-20T11:36:34.959Z,33.86
2023-03-20T11:39:07.460Z,33.63
2023-03-20T11:41:41.363Z,33.74
2023-03-20T11:44:21.966Z,32.84
2023-03-20T11:47:16.248Z,33.75
2023-03-20T11:49:55.205Z,33.84
2023-03-20T11:52:34.066Z,31.77
2023-03-20T11:55:23.206Z,30.46
2023-03-20T11:57:51.017Z,30.83
2023-03-20T12:00:21.065Z,31.61
2023-03-20T12:02:49.473Z,29.73
2023-03-20T12:05:28.253Z,29.29
2023-03-20T12:08:16.098Z,29.64
2023-03-20T12:10:45.068Z,29.78
2023-03-20T12:13:13.120Z,30.14
2023-03-20T12:15:43.635Z,30.60
2023-03-20T12:18:11.211Z,30.93
2023-03-20T12:20:44.809Z,31.58
2023-03-20T12:23:22.825Z,32.47
2023-03-20T12:26:09.803Z,31.12
2023-03-20T12:28:47.812Z,30.21
2023-03-20T12:31:21.541Z,30.56
2023-03-20T12:34:01.778Z,31.71
2023-03-20T12:36:34.152Z,32.33
2023-03-20T12:39:06.768Z,32.64
2023-03-20T12:41:52.860Z,31.53
2023-03-20T12:44:29.530Z,30.42
2023-03-20T12:47:02.853Z,29.14
2023-03-20T12:49:53.709Z,29.79
2023-03-20T12:52:24.316Z,29.82
2023-03-20T12:55:01.737Z,28.26
2023-03-20T12:57:32.359Z,29.39
2023-03-20T13:00:05.930Z,30.06
2023-03-20T13:02:42.629Z,29.06
2023-03-20T13:05:13.264Z,28.87
2023-03-20T13:08:06.409Z,27.89
2023-03-20T13:10:39.687Z,26.31
2023-03-20T13:13:15.219Z,25.45
2023-03-20T13:16:09.489Z,25.64
2023-03-20T13:18:39.888Z,27.19
2023-03-20T13:21:11.157Z,27.44
2023-03-20T13:23:42.051Z,26.39
2023-03-20T13:26:14.426Z,26.59
2023-03-20T13:28:45.864Z,26.59
2023-03-20T13:31:21.231Z,25.96
2023-03-20T13:34:07.227Z,24.36
2023-03-20T13:36:43.746Z,25.24
2023-03-20T13:39:29.646Z,26.73
2023-03-20T13:41:57.505Z,25.35
2023-03-20T13:44:28.282Z,24.90
2023-03-20T13:47:01.321Z,22.81
2023-03-20T13:49:39.834Z,23.11
2023-03-20T13:52:15.675Z,22.90
2023-03-20T13:55:02.044Z,24.44
2023-03-20T13:57:33.128Z,24.04
2023-03-20T14:00:05.477Z,23.87
2023-03-20T14:03:04.236Z,23.91
2023-03-20T14:05:36.897Z,23.62
2023-03-20T14:08:23.047Z,23.91
2023-03-20T14:11:06.505Z,23.57
2023-03-20T14:13:34.904Z,23.45
2023-03-20T14:16:08.880Z,23.88
2023-03-20T14:18:36.836Z,25.41
2023-03-20T14:21:09.934Z,25.34
2023-03-20T14:23:39.505Z,24.96
2023-03-20T14:26:27.474Z,25.00
2023-03-20T14:29:00.524Z,25.27
2023-03-20T14:31:31.873Z,25.61
2023-03-20T14:34:01.176Z,25.27
2023-03-20T14:36:30.623Z,25.38
2023-03-20T14:38:58.323Z,26.95
2023-03-20T14:41:32.114Z,25.59
2023-03-20T14:44:02.462Z,26.61
2023-03-20T14:46:48.492Z,26.81
2023-03-20T14:49:28.277Z,26.78
2023-03-20T14:52:01.160Z,29.11
2023-03-20T14:54:30.198Z,28.87
2023-03-20T14:57:09.284Z,29.08
2023-03-20T14:59:37.003Z,31.14
2023-03-20T15:02:04.874Z,32.12
2023-03-20T15:04:39.616Z,31.83
2023-03-20T15:07:18.011Z,31.47
2023-03-20T15:09:46.949Z,30.57
2023-03-20T15:12:17.914Z,32.65
2023-03-20T15:14:55.435Z,33.65
2023-03-20T15:17:24.882Z,33.33
2023-03-20T15:20:00.507Z,33.33
2023-03-20T15:22:28.173Z,33.47
2023-03-20T15:24:57.124Z,34.21
2023-03-20T15:27:26.480Z,34.26
2023-03-20T15:29:55.953Z,34.26
2023-03-20T15:32:24.165Z,34.09
2023-03-20T15:34:52.119Z,34.12
2023-03-20T15:37:24.775Z,34.33
2023-03-20T15:39:55.601Z,35.10
2023-03-20T15:42:25.380Z,35.77
2023-03-20T15:44:54.452Z,35.94
2023-03-20T15:47:23.619Z,35.52
2023-03-20T15:49:51.919Z,35.40
2023-03-20T15:52:31.691Z,35.34
2023-03-20T15:55:01.072Z,35.73
2023-03-20T15:57:35.666Z,36.49
2023-03-20T16:00:08.057Z,36.25
2023-03-20T16:02:36.794Z,36.61
2023-03-20T16:05:04.767Z,35.86
2023-03-20T16:07:33.207Z,36.81
2023-03-20T16:10:01.378Z,37.19
2023-03-20T16:12:29.085Z,37.34
2023-03-20T16:14:58.332Z,37.33
2023-03-20T16:17:26.975Z,37.97
2023-03-20T16:19:54.689Z,37.92
2023-03-20T16:22:26.018Z,38.28
2023-03-20T16:24:55.685Z,38.31
2023-03-20T16:27:34.511Z,39.55
2023-03-20T16:30:13.457Z,39.03
2023-03-20T16:32:42.946Z,39.53
2023-03-20T16:35:27.374Z,40.03
2023-03-20T16:37:56.324Z,39.95
2023-03-20T16:40:35.259Z,39.97
2023-03-20T16:43:07.466Z,40.87
2023-03-20T16:45:36.846Z,41.28
2023-03-20T16:48:10.756Z,41.16
2023-03-20T16:50:40.126Z,41.26
2023-03-20T16:53:12.017Z,41.58
2023-03-20T16:55:44.333Z,41.69
2023-03-20T16:58:17.576Z,41.74
2023-03-20T17:01:12.329Z,41.89
2023-03-20T17:03:52.670Z,42.30
2023-03-20T17:06:21.310Z,42.34
2023-03-20T17:08:51.294Z,42.15
2023-03-20T17:11:28.165Z,42.38
2023-03-20T17:13:55.831Z,42.73
2023-03-20T17:16:24.789Z,43.23
2023-03-20T17:19:02.543Z,43.56
2023-03-20T17:21:30.273Z,43.89
2023-03-20T17:23:58.293Z,43.93
2023-03-20T17:26:26.175Z,44.01
2023-03-20T17:28:54.673Z,43.94
2023-03-20T17:31:22.421Z,44.18
2023-03-20T17:33:50.131Z,44.43
2023-03-20T17:36:23.835Z,45.30
2023-03-20T17:38:51.554Z,45.70
2023-03-20T17:41:20.277Z,46.31
2023-03-20T17:43:48.435Z,47.17
2023-03-20T17:46:26.908Z,47.85
2023-03-20T17:49:10.774Z,48.10
2023-03-20T17:51:38.418Z,48.56
2023-03-20T17:54:06.076Z,48.61
2023-03-20T17:56:33.817Z,49.09
2023-03-20T17:59:02.675Z,49.09
2023-03-20T18:01:32.777Z,49.53
2023-03-20T18:04:00.578Z,49.76
2023-03-20T18:06:29.485Z,52.66
2023-03-20T18:08:57.707Z,55.21
2023-03-20T18:11:25.871Z,56.96
2023-03-20T18:13:53.572Z,58.11
2023-03-20T18:16:23.881Z,58.63
2023-03-20T18:18:52.873Z,58.75
2023-03-20T18:21:20.979Z,58.89
2023-03-20T18:23:48.938Z,59.68
2023-03-20T18:26:24.595Z,60.42
2023-03-20T18:28:53.584Z,61.97
2023-03-20T18:31:21.655Z,62.13
2023-03-20T18:33:50.628Z,62.92
2023-03-20T18:36:22.865Z,63.30
2023-03-20T18:38:51.791Z,63.50
2023-03-20T18:41:19.896Z,63.86
2023-03-20T18:43:48.461Z,63.86
2023-03-20T18:46:17.757Z,64.31
2023-03-20T18:48:46.262Z,64.51
2023-03-20T18:51:14.323Z,64.50
2023-03-20T18:53:42.105Z,64.26
2023-03-20T18:56:14.989Z,64.78
2023-03-20T18:58:42.866Z,64.25
2023-03-20T19:01:12.977Z,63.75
2023-03-20T19:03:42.604Z,63.98
2023-03-20T19:06:15.330Z,64.47
2023-03-20T19:08:43.650Z,64.53
2023-03-20T19:11:20.589Z,64.66
2023-03-20T19:13:51.354Z,64.96
2023-03-20T19:16:19.036Z,65.17
2023-03-20T19:18:46.840Z,65.61
2023-03-20T19:21:14.504Z,65.95
2023-03-20T19:23:42.212Z,64.79
2023-03-20T19:26:17.490Z,65.11
2023-03-20T19:28:45.678Z,65.64
2023-03-20T19:31:13.510Z,65.92
2023-03-20T19:33:41.263Z,65.50
2023-03-20T19:36:20.479Z,65.66
2023-03-20T19:38:48.148Z,66.28
2023-03-20T19:41:16.018Z,66.06
2023-03-20T19:43:52.525Z,66.37
2023-03-20T19:46:38.636Z,66.92
2023-03-20T19:49:17.881Z,66.77
2023-03-20T19:51:46.303Z,67.59
2023-03-20T19:54:14.029Z,67.56
2023-03-20T19:56:41.752Z,68.15
2023-03-20T19:59:09.487Z,68.42
2023-03-20T20:01:37.225Z,67.63
2023-03-20T20:04:05.037Z,67.53
2023-03-20T20:06:33.347Z,68.41
2023-03-20T20:09:01.783Z,68.76
2023-03-20T20:11:29.636Z,69.57
2023-03-20T20:14:06.677Z,68.93
2023-03-20T20:16:36.305Z,69.62
2023-03-20T20:19:04.216Z,69.73
2023-03-20T20:24:20.473Z,69.47
2023-03-20T20:26:54.951Z,69.88
2023-03-20T20:29:28.278Z,70.25
2023-03-20T20:31:57.076Z,69.97
2023-03-20T20:35:30.777Z,69.67
2023-03-20T20:40:00.711Z,69.42
2023-03-20T20:42:28.506Z,69.14
2023-03-20T20:44:56.152Z,69.17
2023-03-20T20:47:23.877Z,68.86
2023-03-20T20:49:51.681Z,68.79
2023-03-20T20:52:20.588Z,68.73
2023-03-20T20:54:48.476Z,68.77
2023-03-20T20:57:16.474Z,68.15
2023-03-20T20:59:44.407Z,68.29
2023-03-20T21:02:12.416Z,68.75
2023-03-20T21:04:41.581Z,69.19
2023-03-20T21:07:13.063Z,68.67
2023-03-20T21:09:40.975Z,68.36
2023-03-20T21:12:12.871Z,67.66
2023-03-20T21:14:47.305Z,69.14
2023-03-20T21:17:15.066Z,68.96
2023-03-20T21:19:42.882Z,69.17
2023-03-20T21:22:12.616Z,69.41
2023-03-20T21:24:40.185Z,69.49
2023-03-20T21:27:11.221Z,69.17
2023-03-20T21:29:39.051Z,70.19
2023-03-20T21:32:06.949Z,69.95
2023-03-20T21:34:34.598Z,70.52
2023-03-20T21:37:34.647Z,72.00
2023-03-20T21:39:51.634Z,73.17
2023-03-20T21:42:19.358Z,73.15
2023-03-20T21:45:44.837Z,73.45
2023-03-20T21:50:49.450Z,73.97
2023-03-20T21:53:57.653Z,74.17
2023-03-20T21:56:41.704Z,74.17
2023-03-20T22:02:09.698Z,74.53
2023-03-20T22:10:46.057Z,73.24
2023-03-20T22:13:28.503Z,72.40
2023-03-20T22:16:31.250Z,71.73
2023-03-20T22:21:48.496Z,73.25
2023-03-20T22:27:38.509Z,72.51
2023-03-20T22:30:15.146Z,71.98
2023-03-20T22:32:58.389Z,71.93
2023-03-20T22:38:49.501Z,71.94
2023-03-20T22:46:43.903Z,73.94
2023-03-20T22:49:05.963Z,73.09
2023-03-20T22:51:43.809Z,74.24
2023-03-20T22:54:15.449Z,73.95
2023-03-20T22:56:43.080Z,72.84
2023-03-20T22:59:12.008Z,72.83
2023-03-20T23:01:40.047Z,73.19
2023-03-20T23:04:07.662Z,72.82
2023-03-20T23:06:35.358Z,72.15
2023-03-20T23:09:08.982Z,72.14
2023-03-20T23:11:41.087Z,71.87
2023-03-20T23:14:18.298Z,72.68
2023-03-20T23:16:47.650Z,72.46
2023-03-20T23:19:15.288Z,71.70
2023-03-20T23:21:42.900Z,71.36
2023-03-20T23:24:10.779Z,71.30
2023-03-20T23:26:38.377Z,72.37
2023-03-20T23:29:06.633Z,71.73
2023-03-20T23:31:34.352Z,71.84
2023-03-20T23:34:01.925Z,72.01
2023-03-20T23:36:36.479Z,72.22
2023-03-20T23:39:06.132Z,72.36
2023-03-20T23:42:04.664Z,71.89
2023-03-20T23:44:21.542Z,71.21
2023-03-20T23:46:49.456Z,71.61
2023-03-20T23:49:17.059Z,72.01
2023-03-20T23:51:44.579Z,72.30
2023-03-20T23:54:14.557Z,72.62
2023-03-20T23:56:42.228Z,72.51
